createdAt,value
2023-05-18T00:02:21.659Z,100606.09
2023-05-18T00:04:48.565Z,100611.38
2023-05-18T00:07:15.731Z,100598.28
2023-05-18T00:09:42.358Z,100611.56
2023-05-18T00:12:10.192Z,100601.72
2023-05-18T00:14:36.990Z,100599.97
2023-05-18T00:17:03.795Z,100598.31
2023-05-18T00:19:30.623Z,100603.41
2023-05-18T00:21:57.767Z,100590.28
2023-05-18T00:24:24.550Z,100604.47
2023-05-18T00:26:51.284Z,100596.47
2023-05-18T00:29:17.987Z,100601.75
2023-05-18T00:31:45.684Z,100612.16
2023-05-18T00:34:14.100Z,100605.94
2023-05-18T00:36:41.379Z,100609.69
2023-05-18T00:39:09.166Z,100600.91
2023-05-18T00:41:36.188Z,100597.44
2023-05-18T00:44:04.843Z,100612.44
2023-05-18T00:46:32.148Z,100598.19
2023-05-18T00:48:59.212Z,100602.28
2023-05-18T00:51:26.372Z,100601.62
2023-05-18T00:53:53.995Z,100596.25
2023-05-18T00:56:23.760Z,100595.28
2023-05-18T00:58:52.388Z,100596.47
2023-05-18T01:01:19.562Z,100605.38
2023-05-18T01:03:46.306Z,100604.41
2023-05-18T01:06:14.964Z,100603.28
2023-05-18T01:08:43.091Z,100612.25
2023-05-18T01:11:22.104Z,100611.16
2023-05-18T01:14:21.479Z,100605.91
2023-05-18T01:17:03.185Z,100609.50
2023-05-18T01:19:29.892Z,100618.19
2023-05-18T01:22:09.206Z,100629.81
2023-05-18T01:24:43.010Z,100616.53
2023-05-18T01:27:09.764Z,100627.09
2023-05-18T01:29:37.747Z,100632.06
2023-05-18T01:32:07.549Z,100635.88
2023-05-18T01:34:34.224Z,100629.59
2023-05-18T01:37:00.837Z,100639.22
2023-05-18T01:39:27.579Z,100627.66
2023-05-18T01:42:05.291Z,100637.66
2023-05-18T01:44:39.363Z,100631.38
2023-05-18T01:47:15.818Z,100630.63
2023-05-18T01:49:53.394Z,100624.91
2023-05-18T01:52:23.293Z,100631.09
2023-05-18T01:54:51.893Z,100634.13
2023-05-18T01:57:20.037Z,100628.44
2023-05-18T01:59:46.720Z,100629.69
2023-05-18T02:02:13.884Z,100630.28
2023-05-18T02:04:40.830Z,100628.62
2023-05-18T02:07:07.640Z,100625.19
2023-05-18T02:09:34.297Z,100630.59
2023-05-18T02:12:01.053Z,100644.53
2023-05-18T02:14:27.687Z,100627.81
2023-05-18T02:16:54.503Z,100634.09
2023-05-18T02:19:22.066Z,100626.19
2023-05-18T02:21:48.963Z,100628.69
2023-05-18T02:24:15.821Z,100629.78
2023-05-18T02:26:42.569Z,100635.56
2023-05-18T02:29:12.282Z,100633.94
2023-05-18T02:31:39.146Z,100640.06
2023-05-18T02:34:05.977Z,100630.34
2023-05-18T02:36:37.474Z,100635.69
2023-05-18T02:39:07.279Z,100634.63
2023-05-18T02:41:34.060Z,100633.03
2023-05-18T02:44:02.362Z,100636.72
2023-05-18T02:46:29.416Z,100644.41
2023-05-18T02:48:56.406Z,100629.31
2023-05-18T02:51:23.111Z,100641.91
2023-05-18T02:53:50.467Z,100648.00
2023-05-18T02:56:17.960Z,100639.97
2023-05-18T02:58:44.882Z,100642.97
2023-05-18T03:01:12.635Z,100635.91
2023-05-18T03:03:39.628Z,100630.69
2023-05-18T03:06:08.411Z,100638.62
2023-05-18T03:08:37.406Z,100632.34
2023-05-18T03:11:04.353Z,100628.84
2023-05-18T03:13:31.132Z,100637.56
2023-05-18T03:15:57.873Z,100637.88
2023-05-18T03:18:25.813Z,100643.03
2023-05-18T03:20:52.890Z,100641.22
2023-05-18T03:23:20.136Z,100642.81
2023-05-18T03:25:46.798Z,100635.75
2023-05-18T03:28:13.425Z,100648.31
2023-05-18T03:30:40.089Z,100642.25
2023-05-18T03:33:06.815Z,100636.09
2023-05-18T03:35:34.181Z,100643.87
2023-05-18T03:38:01.023Z,100649.12
2023-05-18T03:40:27.757Z,100643.13
2023-05-18T03:42:54.548Z,100648.31
2023-05-18T03:45:21.312Z,100645.69
2023-05-18T03:47:48.167Z,100657.94
2023-05-18T03:50:14.990Z,100662.41
2023-05-18T03:52:44.718Z,100665.94
2023-05-18T03:55:11.626Z,100663.28
2023-05-18T03:57:38.268Z,100659.69
2023-05-18T04:00:08.853Z,100654.41
2023-05-18T04:02:36.571Z,100655.34
2023-05-18T04:05:03.564Z,100657.16
2023-05-18T04:07:30.212Z,100657.09
2023-05-18T04:09:57.003Z,100653.72
2023-05-18T04:12:23.824Z,100657.94
2023-05-18T04:14:50.626Z,100665.97
2023-05-18T04:17:17.945Z,100665.03
2023-05-18T04:19:44.691Z,100664.97
2023-05-18T04:22:11.768Z,100675.59
2023-05-18T04:24:38.647Z,100674.63
2023-05-18T04:27:05.368Z,100669.06
2023-05-18T04:29:32.084Z,100679.81
2023-05-18T04:32:01.335Z,100687.87
2023-05-18T04:34:28.782Z,100679.00
2023-05-18T04:36:56.115Z,100686.94
2023-05-18T04:39:23.746Z,100685.09
2023-05-18T04:41:50.754Z,100683.47
2023-05-18T04:44:18.507Z,100688.66
2023-05-18T04:46:47.565Z,100691.34
2023-05-18T04:49:14.400Z,100680.72
2023-05-18T04:51:42.284Z,100701.81
2023-05-18T04:54:13.214Z,100695.66
2023-05-18T04:56:40.136Z,100692.13
2023-05-18T04:59:06.978Z,100697.44
2023-05-18T05:01:33.874Z,100707.94
2023-05-18T05:04:00.585Z,100693.94
2023-05-18T05:06:27.265Z,100702.75
2023-05-18T05:08:54.048Z,100698.28
2023-05-18T05:11:21.678Z,100701.75
2023-05-18T05:13:48.388Z,100708.75
2023-05-18T05:16:15.122Z,100714.09
2023-05-18T05:18:41.825Z,100718.34
2023-05-18T05:21:09.657Z,100714.06
2023-05-18T05:23:36.470Z,100712.22
2023-05-18T05:26:03.283Z,100712.09
2023-05-18T05:28:30.158Z,100710.25
2023-05-18T05:30:56.804Z,100719.91
2023-05-18T05:33:23.512Z,100712.81
2023-05-18T05:35:50.947Z,100717.38
2023-05-18T05:38:35.458Z,100718.06
2023-05-18T05:41:11.008Z,100722.69
2023-05-18T05:43:38.818Z,100727.84
2023-05-18T05:46:05.554Z,100723.38
2023-05-18T05:48:32.266Z,100720.75
2023-05-18T05:50:58.972Z,100732.31
2023-05-18T05:53:25.642Z,100725.22
2023-05-18T05:55:52.329Z,100733.06
2023-05-18T05:58:19.047Z,100730.53
2023-05-18T06:00:46.889Z,100734.94
2023-05-18T06:03:13.610Z,100735.84
2023-05-18T06:05:40.359Z,100744.47
2023-05-18T06:08:07.092Z,100746.16
2023-05-18T06:10:33.796Z,100739.91
2023-05-18T06:13:00.682Z,100748.66
2023-05-18T06:15:27.548Z,100741.63
2023-05-18T11:51:17.007Z,100890.47
2023-05-18T11:53:44.838Z,100890.47
2023-05-18T11:56:13.230Z,100884.69
2023-05-18T11:58:40.306Z,100888.16
2023-05-18T12:01:11.723Z,100891.50
2023-05-18T12:03:40.016Z,100888.09
2023-05-18T12:06:07.545Z,100882.38
2023-05-18T12:08:34.570Z,100889.28
2023-05-18T12:11:03.303Z,100881.75
2023-05-18T12:13:31.005Z,100883.66
2023-05-18T12:15:59.111Z,100878.63
2023-05-18T12:18:29.600Z,100891.25
2023-05-18T12:20:56.546Z,100882.03
2023-05-18T12:23:37.137Z,100889.50
2023-05-18T12:26:04.114Z,100891.25
2023-05-18T12:28:31.071Z,100894.37
2023-05-18T12:30:58.941Z,100895.38
2023-05-18T12:33:25.862Z,100895.78
2023-05-18T12:35:55.120Z,100895.59
2023-05-18T12:38:26.394Z,100890.22
2023-05-18T12:40:54.497Z,100895.31
2023-05-18T12:43:21.445Z,100899.72
2023-05-18T12:45:48.408Z,100909.62
2023-05-18T12:48:15.587Z,100907.63
2023-05-18T12:50:51.129Z,100911.31
2023-05-18T12:53:18.669Z,100915.66
2023-05-18T12:55:45.700Z,100915.00
2023-05-18T12:58:17.027Z,100917.12
2023-05-18T13:00:48.911Z,100915.75
2023-05-18T13:03:18.072Z,100915.75
2023-05-18T13:05:46.907Z,100911.53
2023-05-18T13:08:22.384Z,100909.44
2023-05-18T13:11:01.435Z,100912.16
2023-05-18T13:13:36.826Z,100912.19
2023-05-18T13:16:04.168Z,100913.88
2023-05-18T13:18:31.364Z,100909.28
2023-05-18T13:20:58.822Z,100913.66
2023-05-18T13:23:29.150Z,100905.19
2023-05-18T13:25:58.807Z,100906.78
2023-05-18T13:28:27.302Z,100912.69
2023-05-18T13:30:54.241Z,100915.19
2023-05-18T13:33:21.724Z,100917.31
2023-05-18T13:35:50.044Z,100916.88
2023-05-18T13:38:17.157Z,100916.94
2023-05-18T13:40:45.887Z,100916.38
2023-05-18T13:43:13.919Z,100908.16
2023-05-18T13:45:41.864Z,100909.34
2023-05-18T13:48:10.783Z,100917.72
2023-05-18T13:50:38.309Z,100906.03
2023-05-18T13:53:05.442Z,100917.56
2023-05-18T13:55:33.493Z,100908.22
2023-05-18T13:58:01.141Z,100916.25
2023-05-18T14:00:28.275Z,100908.31
2023-05-18T14:02:55.485Z,100909.06
2023-05-18T14:05:22.686Z,100907.41
2023-05-18T14:07:50.427Z,100902.91
2023-05-18T14:10:17.287Z,100909.06
2023-05-18T14:12:44.723Z,100913.03
2023-05-18T14:15:14.185Z,100913.88
2023-05-18T14:17:44.760Z,100908.59
2023-05-18T14:20:12.484Z,100913.22
2023-05-18T14:22:39.635Z,100914.34
2023-05-18T14:25:06.982Z,100915.16
2023-05-18T14:27:34.062Z,100916.38
2023-05-18T14:30:01.490Z,100916.53
2023-05-18T14:32:28.540Z,100910.12
2023-05-18T14:34:55.992Z,100907.31
2023-05-18T14:37:22.924Z,100900.69
2023-05-18T14:39:50.006Z,100903.31
2023-05-18T14:42:17.003Z,100894.41
2023-05-18T14:44:43.942Z,100900.34
2023-05-18T14:47:10.949Z,100894.47
2023-05-18T14:49:38.271Z,100899.44
2023-05-18T14:52:05.809Z,100896.53
2023-05-18T14:54:32.747Z,100890.94
2023-05-18T14:57:00.038Z,100900.06
2023-05-18T14:59:26.992Z,100900.56
2023-05-18T15:01:53.933Z,100900.53
2023-05-18T15:04:22.162Z,100899.06
2023-05-18T15:06:49.998Z,100895.88
2023-05-18T15:09:17.486Z,100900.41
2023-05-18T15:11:44.503Z,100896.69
2023-05-18T15:14:11.433Z,100900.41
2023-05-18T15:16:39.008Z,100904.81
2023-05-18T15:19:06.297Z,100904.44
2023-05-18T15:21:33.330Z,100894.13
2023-05-18T15:24:00.240Z,100897.16
2023-05-18T15:26:27.708Z,100906.28
2023-05-18T15:28:54.757Z,100908.66
2023-05-18T15:31:21.695Z,100909.59
2023-05-18T15:33:48.664Z,100912.31
2023-05-18T15:36:15.614Z,100913.88
2023-05-18T15:38:42.531Z,100910.16
2023-05-18T15:41:09.510Z,100912.75
2023-05-18T15:43:36.942Z,100914.72
2023-05-18T15:46:04.633Z,100906.66
2023-05-18T15:48:31.632Z,100913.56
2023-05-18T15:50:58.583Z,100914.06
2023-05-18T15:53:25.491Z,100909.47
2023-05-18T15:55:57.453Z,100911.50
2023-05-18T15:58:25.858Z,100913.78
2023-05-18T16:00:52.860Z,100903.00
2023-05-18T16:03:19.857Z,100910.47
2023-05-18T16:05:46.869Z,100921.09
2023-05-18T16:08:13.814Z,100910.97
2023-05-18T16:10:40.691Z,100911.06
2023-05-18T16:13:07.548Z,100913.41
2023-05-18T16:15:35.630Z,100915.31
2023-05-18T16:18:02.685Z,100921.44
2023-05-18T16:20:30.124Z,100911.41
2023-05-18T16:22:57.444Z,100910.44
2023-05-18T16:25:24.593Z,100914.38
2023-05-18T16:27:51.454Z,100915.88
2023-05-18T16:30:18.844Z,100913.53
2023-05-18T16:32:45.775Z,100912.63
2023-05-18T16:35:12.678Z,100916.78
2023-05-18T16:37:39.639Z,100916.66
2023-05-18T16:40:07.455Z,100922.66
2023-05-18T16:42:34.604Z,100920.38
2023-05-18T16:45:01.607Z,100916.13
2023-05-18T16:47:28.840Z,100922.63
2023-05-18T16:49:55.812Z,100913.97
2023-05-18T16:52:22.690Z,100916.62
2023-05-18T16:54:49.625Z,100919.94
2023-05-18T16:57:16.536Z,100914.69
2023-05-18T16:59:43.432Z,100925.22
2023-05-18T17:02:13.442Z,100919.69
2023-05-18T17:04:44.907Z,100935.66
2023-05-18T17:07:12.561Z,100931.97
2023-05-18T17:09:41.853Z,100936.34
2023-05-18T17:12:10.522Z,100931.41
2023-05-18T17:14:38.422Z,100938.91
2023-05-18T17:17:06.728Z,100932.59
2023-05-18T17:19:35.354Z,100931.06
2023-05-18T17:22:03.286Z,100932.84
2023-05-18T17:24:30.693Z,100933.62
2023-05-18T17:26:57.837Z,100941.56
2023-05-18T17:29:24.856Z,100935.13
2023-05-18T17:31:52.018Z,100939.50
2023-05-18T17:34:19.044Z,100936.81
2023-05-18T17:36:46.707Z,100937.72
2023-05-18T17:39:15.905Z,100939.03
2023-05-18T17:41:44.041Z,100936.19
2023-05-18T17:44:14.432Z,100942.56
2023-05-18T17:46:41.976Z,100945.06
2023-05-18T17:49:09.107Z,100942.00
2023-05-18T17:51:36.027Z,100948.63
2023-05-18T17:54:02.865Z,100947.28
2023-05-18T17:56:30.690Z,100947.94
2023-05-18T17:58:59.361Z,100948.28
2023-05-18T18:01:27.658Z,100947.06
2023-05-18T18:03:58.271Z,100954.16
2023-05-18T18:06:25.647Z,100949.72
2023-05-18T18:08:57.299Z,100951.59
2023-05-18T18:11:27.620Z,100940.69
2023-05-18T18:13:55.097Z,100950.44
2023-05-18T18:16:22.536Z,100951.50
2023-05-18T18:18:50.719Z,100946.97
2023-05-18T18:21:17.700Z,100945.28
2023-05-18T18:23:45.367Z,100944.66
2023-05-18T18:26:12.367Z,100948.03
2023-05-18T18:28:39.359Z,100947.28
2023-05-18T18:31:06.450Z,100958.56
2023-05-18T18:33:33.615Z,100961.16
2023-05-18T18:36:02.439Z,100959.53
2023-05-18T18:38:29.576Z,100960.38
2023-05-18T18:41:01.644Z,100962.03
2023-05-18T18:43:28.878Z,100966.09
2023-05-18T18:45:57.349Z,100966.97
2023-05-18T18:48:25.418Z,100972.53
2023-05-18T18:50:53.219Z,100970.56
2023-05-18T18:53:20.294Z,100966.09
2023-05-18T18:55:47.320Z,100974.72
2023-05-18T18:58:14.220Z,100976.03
2023-05-18T19:00:41.316Z,100979.44
2023-05-18T19:03:10.125Z,100973.94
2023-05-18T19:05:37.575Z,100980.31
2023-05-18T19:08:04.617Z,100990.00
2023-05-18T19:10:33.093Z,100989.13
2023-05-18T19:13:05.125Z,100984.44
2023-05-18T19:15:33.630Z,100979.31
2023-05-18T19:18:01.115Z,100982.75
2023-05-18T19:20:28.111Z,100981.88
2023-05-18T19:22:55.131Z,100986.13
2023-05-18T19:25:24.833Z,100986.31
2023-05-18T19:27:53.210Z,100989.59
2023-05-18T19:30:21.833Z,101000.53
2023-05-18T19:32:50.021Z,100990.59
2023-05-18T19:35:19.640Z,100988.91
2023-05-18T19:37:47.277Z,100994.00
2023-05-18T19:40:14.320Z,100995.69
2023-05-18T19:42:41.269Z,100988.53
2023-05-18T19:45:08.724Z,100997.00
2023-05-18T19:47:36.555Z,100985.25
2023-05-18T19:50:04.449Z,100990.41
2023-05-18T19:52:32.336Z,100991.41
2023-05-18T19:54:59.280Z,100990.72
2023-05-18T19:57:26.697Z,100992.47
2023-05-18T19:59:53.784Z,101000.53
2023-05-18T20:02:20.720Z,100997.91
2023-05-18T20:04:48.567Z,100998.03
2023-05-18T20:07:15.496Z,101006.22
2023-05-18T20:09:42.362Z,101006.84
2023-05-18T20:12:09.382Z,101013.16
2023-05-18T20:14:36.929Z,101004.09
2023-05-18T20:17:04.455Z,101012.91
2023-05-18T20:19:32.390Z,101005.69
2023-05-18T20:21:59.307Z,101008.41
2023-05-18T20:24:26.342Z,101013.72
2023-05-18T20:26:53.642Z,101009.41
2023-05-18T20:29:20.654Z,101014.53
2023-05-18T20:31:47.713Z,101016.19
2023-05-18T20:34:14.651Z,101009.94
2023-05-18T20:36:41.563Z,101015.44
2023-05-18T20:39:09.225Z,101012.72
2023-05-18T20:41:40.306Z,101016.16
2023-05-18T20:44:10.737Z,101012.59
2023-05-18T20:46:38.514Z,101013.78
2023-05-18T20:49:05.768Z,101023.37
2023-05-18T20:51:32.714Z,101015.31
2023-05-18T20:53:59.581Z,101013.56
2023-05-18T20:56:26.969Z,101015.59
2023-05-18T20:58:54.211Z,101020.37
2023-05-18T21:01:21.699Z,101012.66
2023-05-18T21:03:48.754Z,101013.03
2023-05-18T21:06:16.007Z,101018.97
2023-05-18T21:08:45.481Z,101015.66
2023-05-18T21:11:12.326Z,101012.59
2023-05-18T21:13:39.268Z,101006.97
2023-05-18T21:16:08.606Z,101017.66
2023-05-18T21:18:36.096Z,101017.50
2023-05-18T21:21:03.531Z,101017.50
2023-05-18T21:23:30.574Z,101022.75
2023-05-18T21:25:57.598Z,101024.53
2023-05-18T21:28:25.215Z,101026.56
2023-05-18T21:30:52.942Z,101027.09
2023-05-18T21:33:20.159Z,101026.94
2023-05-18T21:35:47.075Z,101024.38
2023-05-18T21:38:13.989Z,101026.75
2023-05-18T21:40:43.765Z,101022.50
2023-05-18T21:43:11.136Z,101020.00
2023-05-18T21:45:39.064Z,101025.59
2023-05-18T21:48:06.558Z,101022.00
2023-05-18T21:50:35.393Z,101022.72
2023-05-18T21:53:05.728Z,101030.47
2023-05-18T21:55:33.173Z,101027.50
2023-05-18T21:58:00.430Z,101034.88
2023-05-18T22:00:28.743Z,101026.03
2023-05-18T22:02:55.831Z,101033.97
2023-05-18T22:05:22.807Z,101036.41
2023-05-18T22:07:49.897Z,101031.97
2023-05-18T22:10:18.299Z,101031.78
2023-05-18T22:12:45.580Z,101030.22
2023-05-18T22:15:12.916Z,101036.22
2023-05-18T22:17:40.471Z,101045.25
2023-05-18T22:20:11.689Z,101040.63
2023-05-18T22:22:40.480Z,101039.66
2023-05-18T22:25:08.009Z,101044.22
2023-05-18T22:27:36.956Z,101047.88
2023-05-18T22:30:06.274Z,101044.28
2023-05-18T22:32:33.462Z,101054.03
2023-05-18T22:35:03.621Z,101053.31
2023-05-18T22:37:30.680Z,101052.25
2023-05-18T22:39:57.588Z,101053.87
2023-05-18T22:42:24.522Z,101053.09
2023-05-18T22:44:51.558Z,101047.84
2023-05-18T22:47:21.598Z,101045.97
2023-05-18T22:49:49.365Z,101046.25
2023-05-18T22:52:18.027Z,101048.81
2023-05-18T22:54:44.877Z,101044.25
2023-05-18T22:57:11.781Z,101049.38
2023-05-18T22:59:38.739Z,101044.91
2023-05-18T23:02:06.241Z,101040.50
2023-05-18T23:04:34.570Z,101039.59
2023-05-18T23:07:02.007Z,101043.97
2023-05-18T23:09:30.864Z,101046.53
2023-05-18T23:11:59.758Z,101043.09
2023-05-18T23:14:32.698Z,101039.06
2023-05-18T23:17:00.374Z,101042.50
2023-05-18T23:19:27.408Z,101038.03
2023-05-18T23:21:54.829Z,101045.25
2023-05-18T23:24:21.949Z,101044.25
2023-05-18T23:26:48.827Z,101043.19
2023-05-18T23:29:15.679Z,101046.69
2023-05-18T23:31:42.595Z,101045.97
2023-05-18T23:34:09.901Z,101035.88
2023-05-18T23:36:39.881Z,101039.81
2023-05-18T23:39:07.330Z,101047.06
2023-05-18T23:41:35.945Z,101041.72
2023-05-18T23:44:03.080Z,101040.81
2023-05-18T23:46:31.043Z,101037.22
2023-05-18T23:48:59.939Z,101033.78
2023-05-18T23:51:30.044Z,101032.88
2023-05-18T23:53:58.086Z,101031.28
2023-05-18T23:56:25.508Z,101031.31
2023-05-18T23:58:52.564Z,101029.50
